Time;durP1;ratioP1;P1;durP2;ratioP2;P2;SDS_P1;SDS_P2;PMS_P1;PMS_P2;Temp;Humidity;BMP_temperature;BMP_pressure;BME280_temperature;BME280_humidity;BME280_pressure;Samples;Min_cycle;Max_cycle;Signal;HPM_P1;HPM_P2
2021/04/24 00:00:48;;;;;;;12.43;4.90;;;;;;;5.67;82.37;101762.66;5182918;28;20022;-77
2021/04/24 00:03:18;;;;;;;15.60;4.97;;;;;;;5.55;83.17;101764.34;5182712;28;20030;-78
2021/04/24 00:05:49;;;;;;;15.13;5.07;;;;;;;5.30;82.98;101765.09;5174498;28;20492;-78
2021/04/24 00:08:19;;;;;;;14.00;5.40;;;;;;;5.38;83.51;101758.25;5181724;28;20026;-77
2021/04/24 00:10:50;;;;;;;13.98;4.35;;;;;;;5.29;83.08;101773.72;5187810;28;20113;-78
2021/04/24 00:13:20;;;;;;;8.38;4.32;;;;;;;5.27;83.18;101767.69;5181211;28;20076;-78
2021/04/24 00:15:51;;;;;;;13.15;4.22;;;;;;;5.42;81.77;101768.59;5186011;28;20097;-76
2021/04/24 00:18:21;;;;;;;9.07;3.90;;;;;;;5.19;81.19;101764.16;5182997;28;20028;-77
2021/04/24 00:20:52;;;;;;;11.88;4.28;;;;;;;5.18;80.62;101761.59;5204936;28;20029;-77
2021/04/24 00:23:22;;;;;;;15.25;4.60;;;;;;;4.81;82.08;101765.66;5191423;28;20546;-78
2021/04/24 00:25:52;;;;;;;10.70;4.10;;;;;;;4.94;82.06;101770.09;5191941;28;20032;-78
2021/04/24 00:28:23;;;;;;;10.63;3.75;;;;;;;4.81;81.80;101767.41;5186055;28;20022;-78
2021/04/24 00:30:53;;;;;;;12.95;3.92;;;;;;;4.42;81.81;101767.09;5182035;28;20013;-77
2021/04/24 00:33:24;;;;;;;10.68;4.22;;;;;;;4.26;84.58;101763.53;5185400;28;20067;-77
2021/04/24 00:35:55;;;;;;;11.55;4.38;;;;;;;4.22;85.75;101766.94;5186950;28;20025;-77
2021/04/24 00:38:27;;;;;;;9.30;4.32;;;;;;;4.30;85.38;101773.03;5186597;28;20479;-77
2021/04/24 00:40:57;;;;;;;9.60;4.15;;;;;;;4.29;86.14;101762.69;5195134;28;20037;-78
2021/04/24 00:43:27;;;;;;;13.98;4.93;;;;;;;4.31;85.24;101768.75;5181535;28;20388;-78
2021/04/24 00:45:58;;;;;;;11.45;4.53;;;;;;;4.12;85.42;101772.88;5183364;28;20851;-77
2021/04/24 00:48:31;;;;;;;11.02;4.35;;;;;;;4.19;85.43;101769.50;5176238;28;20072;-77
2021/04/24 00:51:03;;;;;;;9.50;4.10;;;;;;;4.39;83.85;101762.78;5184673;28;20024;-78
2021/04/24 00:53:35;;;;;;;14.45;4.68;;;;;;;4.34;84.48;101769.66;5187022;28;20030;-78
2021/04/24 00:56:06;;;;;;;13.10;5.05;;;;;;;4.40;84.21;101761.94;5190065;28;20603;-77
2021/04/24 00:58:36;;;;;;;14.82;5.07;;;;;;;4.27;85.11;101773.00;5186758;28;20034;-77
2021/04/24 01:01:06;;;;;;;12.40;4.38;;;;;;;4.21;85.28;101761.75;5183452;28;20072;-78
2021/04/24 01:03:37;;;;;;;14.65;4.60;;;;;;;4.18;84.80;101772.06;5183701;28;20614;-78
2021/04/24 01:06:08;;;;;;;15.43;5.60;;;;;;;4.17;86.00;101766.03;5185318;28;20503;-78
2021/04/24 01:08:39;;;;;;;10.35;4.53;;;;;;;4.17;86.21;101767.75;5186121;28;20422;-77
2021/04/24 01:11:09;;;;;;;15.38;5.18;;;;;;;4.14;86.77;101766.00;5182432;28;20415;-78
2021/04/24 01:13:40;;;;;;;20.13;6.15;;;;;;;4.24;87.30;101774.69;5183791;28;20022;-78
2021/04/24 01:16:10;;;;;;;15.10;6.18;;;;;;;4.30;86.98;101762.69;5187938;28;20033;-78
2021/04/24 01:18:40;;;;;;;15.07;5.43;;;;;;;4.34;87.43;101766.19;5185565;28;20072;-78
2021/04/24 01:21:11;;;;;;;18.23;5.80;;;;;;;4.26;87.57;101757.50;5184494;28;20029;-77
2021/04/24 01:23:42;;;;;;;16.38;5.85;;;;;;;4.32;87.62;101755.81;5184037;28;20045;-78
2021/04/24 01:26:12;;;;;;;13.57;5.40;;;;;;;4.29;87.18;101758.38;5182782;28;20065;-77
2021/04/24 01:28:44;;;;;;;14.77;5.35;;;;;;;4.37;87.49;101766.19;5180679;28;20025;-78
2021/04/24 01:31:15;;;;;;;17.30;6.15;;;;;;;4.42;86.84;101772.25;5184494;28;20439;-78
2021/04/24 01:33:46;;;;;;;13.57;5.57;;;;;;;4.49;86.93;101767.16;5184408;28;20029;-79
2021/04/24 01:36:16;;;;;;;14.75;5.85;;;;;;;4.60;85.66;101760.34;5185017;28;20531;-78
2021/04/24 01:38:46;;;;;;;16.63;6.50;;;;;;;4.55;86.67;101769.81;5185363;28;20120;-79
2021/04/24 01:41:17;;;;;;;11.90;5.55;;;;;;;4.43;87.54;101764.53;5185609;28;20038;-77
2021/04/24 01:43:55;;;;;;;13.15;5.65;;;;;;;4.47;87.05;101774.03;5185852;28;20040;-77
2021/04/24 01:46:25;;;;;;;14.70;5.68;;;;;;;4.42;86.59;101773.16;5195635;28;20025;-77
2021/04/24 01:48:56;;;;;;;20.35;5.90;;;;;;;4.41;87.52;101775.72;5185203;28;20028;-78
2021/04/24 01:51:26;;;;;;;15.93;5.55;;;;;;;4.42;86.95;101774.84;5185038;28;20029;-78
2021/04/24 01:53:58;;;;;;;18.17;6.10;;;;;;;4.30;88.14;101772.19;5181748;28;20026;-79
2021/04/24 01:57:00;;;;;;;18.20;6.13;;;;;;;4.28;87.15;101772.16;5180090;28;20033;-78
2021/04/24 01:59:35;;;;;;;13.95;6.10;;;;;;;4.15;87.80;101772.91;5142144;28;20422;-78
2021/04/24 02:02:05;;;;;;;16.33;5.55;;;;;;;4.46;86.86;101772.31;5179513;28;20029;-78
2021/04/24 02:04:35;;;;;;;14.82;6.03;;;;;;;4.25;86.08;101773.84;5188970;28;20379;-79
2021/04/24 02:07:06;;;;;;;18.60;5.80;;;;;;;4.21;87.34;101772.97;5180820;28;20033;-77
2021/04/24 02:09:36;;;;;;;17.10;5.93;;;;;;;4.08;87.99;101771.13;5177436;28;20056;-78
2021/04/24 02:12:09;;;;;;;16.35;6.32;;;;;;;3.92;89.41;101769.22;5179362;28;20763;-77
2021/04/24 02:14:49;;;;;;;17.13;6.00;;;;;;;4.00;88.58;101771.88;5190074;28;20029;-78
2021/04/24 02:17:22;;;;;;;14.85;6.07;;;;;;;3.98;88.77;101758.94;5193113;28;20066;-78
2021/04/24 02:19:54;;;;;;;22.23;6.40;;;;;;;3.92;88.71;101761.47;5185038;28;20034;-78
2021/04/24 02:22:24;;;;;;;14.18;5.80;;;;;;;3.91;88.80;101762.31;5184691;28;20080;-78
2021/04/24 02:24:57;;;;;;;12.77;5.93;;;;;;;3.95;88.81;101750.31;5182848;28;20026;-77
2021/04/24 02:27:29;;;;;;;17.13;6.72;;;;;;;4.08;87.96;101753.00;5184136;28;20104;-77
2021/04/24 02:29:59;;;;;;;14.90;6.10;;;;;;;4.06;87.13;101756.41;5183889;28;20022;-78
2021/04/24 02:32:32;;;;;;;18.38;7.03;;;;;;;3.81;88.99;101757.03;5181986;28;20028;-78
2021/04/24 02:35:03;;;;;;;17.98;6.20;;;;;;;3.92;88.85;101756.28;5188283;28;20022;-77
2021/04/24 02:37:35;;;;;;;21.15;6.65;;;;;;;3.93;87.65;101754.59;5196840;28;20026;-78
2021/04/24 02:40:09;;;;;;;18.08;5.82;;;;;;;3.80;88.59;101753.56;5187977;28;20488;-78
2021/04/24 02:42:39;;;;;;;13.75;5.47;;;;;;;3.98;87.45;101756.34;5196644;28;20030;-77
2021/04/24 02:45:10;;;;;;;23.65;6.15;;;;;;;3.84;88.15;101752.78;5195221;28;20054;-78
2021/04/24 02:47:42;;;;;;;14.98;6.35;;;;;;;3.81;89.07;101757.03;5190603;28;20028;-77
2021/04/24 02:50:17;;;;;;;15.70;6.22;;;;;;;3.97;88.00;101759.78;5183992;28;20025;-78
2021/04/24 02:52:47;;;;;;;18.50;6.80;;;;;;;3.66;89.85;101757.75;5184915;28;20037;-78
2021/04/24 02:55:20;;;;;;;21.08;6.78;;;;;;;3.76;89.89;101757.00;5183006;28;20540;-78
2021/04/24 02:57:50;;;;;;;13.55;5.65;;;;;;;3.73;88.60;101761.25;5185109;28;20029;-78
2021/04/24 03:00:21;;;;;;;16.30;6.80;;;;;;;3.98;88.12;101769.28;5185244;28;20085;-78
2021/04/24 03:03:06;;;;;;;17.40;6.43;;;;;;;3.87;89.12;101757.09;5179857;28;20392;-78
2021/04/24 03:05:38;;;;;;;18.35;6.63;;;;;;;3.84;89.26;101760.53;5185488;28;20069;-78
2021/04/24 03:08:10;;;;;;;17.75;6.32;;;;;;;4.14;88.33;101765.13;5181833;28;20034;-78
2021/04/24 03:10:41;;;;;;;17.67;7.20;;;;;;;4.08;87.52;101760.78;5179372;28;20026;-78
2021/04/24 03:13:12;;;;;;;17.60;7.10;;;;;;;4.13;88.03;101755.66;5222724;23;20435;-77
2021/04/24 03:15:42;;;;;;;18.83;7.43;;;;;;;3.86;88.82;101764.00;5182387;28;20021;-78
2021/04/24 03:18:12;;;;;;;24.10;8.07;;;;;;;3.72;90.85;101765.56;5171430;28;20034;-78
2021/04/24 03:20:43;;;;;;;18.33;7.15;;;;;;;3.87;90.55;101757.09;5167147;28;20044;-77
2021/04/24 03:23:13;;;;;;;18.88;7.57;;;;;;;4.03;89.16;101754.69;5164565;28;20042;-77
2021/04/24 03:25:43;;;;;;;16.48;7.50;;;;;;;4.09;89.37;101759.06;5164635;28;20554;-78
2021/04/24 03:28:14;;;;;;;18.65;8.73;;;;;;;4.19;88.58;101763.44;5147289;28;20030;-77
2021/04/24 03:30:44;;;;;;;19.42;8.02;;;;;;;4.02;88.98;101752.97;5165443;28;20034;-78
2021/04/24 03:33:14;;;;;;;22.02;7.97;;;;;;;4.15;88.62;101759.97;5168754;28;20030;-77
2021/04/24 03:35:45;;;;;;;20.88;8.05;;;;;;;4.09;88.49;101765.09;5172532;28;20022;-79
2021/04/24 03:38:15;;;;;;;17.52;7.45;;;;;;;3.88;90.20;101762.28;5166553;28;20038;-78
2021/04/24 03:40:45;;;;;;;15.98;7.55;;;;;;;4.03;89.80;101762.44;5166395;28;20054;-77
2021/04/24 03:43:16;;;;;;;18.92;7.10;;;;;;;4.04;89.70;101763.31;5166413;28;20026;-77
2021/04/24 03:45:46;;;;;;;14.68;6.97;;;;;;;3.98;90.15;101758.94;5165316;28;20065;-77
2021/04/24 03:48:17;;;;;;;17.08;8.32;;;;;;;3.96;91.07;101765.81;5148087;28;20042;-78
2021/04/24 03:50:47;;;;;;;19.85;8.15;;;;;;;3.72;90.95;101772.44;5166596;28;20030;-78
2021/04/24 03:53:18;;;;;;;18.52;7.43;;;;;;;3.30;91.15;101771.94;5169642;28;20089;-78
2021/04/24 03:55:48;;;;;;;16.98;7.38;;;;;;;2.99;94.15;101781.84;5169661;28;20034;-78
2021/04/24 03:58:19;;;;;;;17.85;7.13;;;;;;;2.68;92.54;101779.66;5168909;28;20041;-77
2021/04/24 04:00:50;;;;;;;14.90;6.70;;;;;;;2.31;94.24;101791.09;5169300;28;20064;-79
2021/04/24 04:03:20;;;;;;;16.83;7.25;;;;;;;2.23;97.53;101786.63;5169270;28;20065;-78
2021/04/24 04:05:50;;;;;;;15.93;7.47;;;;;;;2.23;97.58;101791.78;5168978;28;20061;-77
2021/04/24 04:08:21;;;;;;;16.30;7.15;;;;;;;2.63;94.31;101791.59;5161327;28;20484;-78
2021/04/24 04:10:51;;;;;;;16.92;7.43;;;;;;;2.87;93.82;101787.69;5164534;28;20021;-79
2021/04/24 04:13:21;;;;;;;19.70;7.35;;;;;;;3.20;92.54;101788.16;5163813;28;20034;-77
2021/04/24 04:15:52;;;;;;;17.92;7.82;;;;;;;3.35;92.18;101784.94;5164284;28;20045;-77
2021/04/24 04:18:22;;;;;;;20.80;7.55;;;;;;;3.42;92.15;101789.31;5164297;28;20055;-77
2021/04/24 04:20:54;;;;;;;19.77;7.90;;;;;;;3.59;92.51;101797.28;5164238;28;20022;-77
2021/04/24 04:23:25;;;;;;;18.40;8.02;;;;;;;3.62;92.01;101792.16;5164459;28;20022;-78
2021/04/24 04:25:57;;;;;;;15.25;7.85;;;;;;;3.77;92.21;101784.56;5146474;28;20033;-77
2021/04/24 04:28:27;;;;;;;21.58;8.65;;;;;;;3.85;91.64;101790.72;5165613;28;20026;-77
2021/04/24 04:30:58;;;;;;;16.67;7.93;;;;;;;4.01;90.62;101784.84;5164199;28;20624;-78
2021/04/24 04:33:28;;;;;;;17.05;7.93;;;;;;;4.09;89.32;101784.94;5164301;28;20088;-77
2021/04/24 04:36:04;;;;;;;19.73;7.57;;;;;;;4.17;89.18;101786.75;5164167;28;20026;-77
2021/04/24 04:38:34;;;;;;;19.85;8.40;;;;;;;4.23;89.27;101785.91;5164509;28;20361;-78
2021/04/24 04:41:05;;;;;;;19.80;7.90;;;;;;;4.33;88.18;101783.41;5165887;28;20030;-77
2021/04/24 04:43:36;;;;;;;19.27;7.90;;;;;;;4.37;89.10;101789.47;5164600;28;20026;-77
2021/04/24 04:46:06;;;;;;;20.58;7.95;;;;;;;4.44;88.67;101786.97;5163566;28;20126;-78
2021/04/24 04:48:36;;;;;;;18.02;8.07;;;;;;;4.22;90.54;101785.06;5164551;28;20026;-78
2021/04/24 04:51:07;;;;;;;20.52;8.40;;;;;;;4.28;90.20;101779.06;5163901;28;20030;-78
2021/04/24 04:53:37;;;;;;;19.13;8.20;;;;;;;4.54;89.21;101775.84;5163947;28;20029;-78
2021/04/24 04:56:07;;;;;;;18.92;8.13;;;;;;;4.70;87.44;101772.53;5164284;28;20638;-77
2021/04/24 04:58:37;;;;;;;19.17;8.00;;;;;;;5.17;87.71;101772.81;5163532;28;20048;-77
2021/04/24 05:01:08;;;;;;;16.88;8.40;;;;;;;5.31;86.08;101772.00;5163163;28;20541;-77
2021/04/24 05:03:39;;;;;;;19.48;8.35;;;;;;;6.09;86.57;101769.72;5163258;28;20026;-77
2021/04/24 05:06:09;;;;;;;16.65;8.23;;;;;;;7.25;83.45;101753.16;5165971;28;20034;-79
2021/04/24 05:08:39;;;;;;;18.63;8.60;;;;;;;8.31;73.78;101762.13;5172006;28;20448;-79
2021/04/24 05:11:10;;;;;;;16.02;7.40;;;;;;;10.02;71.70;101756.78;5172114;28;20034;-79
2021/04/24 05:13:42;;;;;;;16.35;7.63;;;;;;;10.24;65.91;101755.59;5171318;28;20026;-78
2021/04/24 05:16:13;;;;;;;19.38;8.40;;;;;;;9.88;67.27;101763.06;5170679;28;20042;-78
2021/04/24 05:18:43;;;;;;;17.80;7.78;;;;;;;10.46;66.11;101769.16;5171279;28;20030;-79
2021/04/24 05:21:14;;;;;;;16.40;7.97;;;;;;;9.81;67.87;101757.03;5171503;28;20061;-79
2021/04/24 05:23:44;;;;;;;14.40;7.20;;;;;;;10.89;65.51;101751.88;5171235;28;20069;-79
2021/04/24 05:26:14;;;;;;;14.93;7.60;;;;;;;10.39;67.02;101757.09;5172482;28;20018;-79
2021/04/24 05:28:44;;;;;;;15.32;7.13;;;;;;;12.38;64.06;101751.31;5170377;28;20049;-79
2021/04/24 05:31:15;;;;;;;19.17;7.97;;;;;;;13.02;61.21;101752.28;5170882;28;20400;-78
2021/04/24 05:33:45;;;;;;;16.08;7.25;;;;;;;13.01;60.08;101747.94;5171742;28;20034;-79
2021/04/24 05:36:16;;;;;;;14.20;7.45;;;;;;;13.75;59.22;101753.69;5170864;28;20033;-79
2021/04/24 05:38:51;;;;;;;15.23;7.63;;;;;;;13.18;61.77;101745.72;5152473;28;20117;-78
2021/04/24 05:41:22;;;;;;;12.93;6.80;;;;;;;16.04;54.74;101735.16;5171900;28;20026;-79
2021/04/24 05:43:55;;;;;;;15.52;7.20;;;;;;;17.31;50.92;101738.47;5170956;28;20046;-79
2021/04/24 05:46:27;;;;;;;10.70;6.68;;;;;;;17.47;50.54;101743.97;5156623;28;20034;-78
2021/04/24 05:48:57;;;;;;;14.85;7.80;;;;;;;15.62;52.50;101749.97;5171033;28;20026;-79
2021/04/24 05:51:28;;;;;;;15.25;8.10;;;;;;;15.63;53.27;101742.00;5171102;28;20038;-79
2021/04/24 05:53:58;;;;;;;14.27;7.75;;;;;;;13.10;59.89;101759.94;5151956;28;20026;-78
2021/04/24 05:56:28;;;;;;;13.15;7.32;;;;;;;12.75;61.45;101759.97;5170754;28;20546;-78
2021/04/24 05:58:59;;;;;;;16.42;8.25;;;;;;;10.80;65.32;101765.09;5171168;28;20030;-79
2021/04/24 06:01:29;;;;;;;17.27;7.82;;;;;;;10.95;66.72;101759.59;5170719;28;20034;-79
2021/04/24 06:03:59;;;;;;;16.42;8.55;;;;;;;10.23;68.85;101768.66;5170870;28;20549;-78
2021/04/24 06:06:30;;;;;;;14.48;7.95;;;;;;;9.61;72.57;101769.50;5170724;28;20049;-79
2021/04/24 06:09:00;;;;;;;16.73;8.65;;;;;;;8.90;75.38;101772.94;5170639;28;20026;-78
2021/04/24 06:11:30;;;;;;;16.48;8.48;;;;;;;8.86;75.52;101766.88;5170604;28;20034;-78
2021/04/24 06:14:02;;;;;;;19.02;9.02;;;;;;;8.74;77.17;101766.97;5150611;28;20033;-78
2021/04/24 06:16:33;;;;;;;19.77;8.63;;;;;;;8.49;78.33;101772.41;5169213;28;20027;-78
2021/04/24 06:19:03;;;;;;;17.60;8.38;;;;;;;8.36;78.25;101774.25;5168566;28;20045;-78
2021/04/24 06:21:34;;;;;;;21.50;8.82;;;;;;;8.55;78.62;101773.22;5151781;28;20078;-78
2021/04/24 06:24:05;;;;;;;18.05;8.55;;;;;;;9.12;77.50;101771.81;5149870;28;20084;-79
2021/04/24 06:26:35;;;;;;;18.02;8.65;;;;;;;11.03;71.69;101754.22;5167325;28;20041;-78
2021/04/24 06:29:05;;;;;;;13.05;7.65;;;;;;;13.24;64.99;101742.91;5168698;28;20030;-78
2021/04/24 06:31:36;;;;;;;14.73;7.40;;;;;;;13.88;62.25;101741.91;5166495;28;20022;-78
2021/04/24 06:34:06;;;;;;;11.95;6.78;;;;;;;15.12;59.97;101735.97;5167668;28;20030;-78
2021/04/24 06:36:37;;;;;;;13.82;7.13;;;;;;;15.50;59.02;101738.09;5166583;28;20039;-78
2021/04/24 06:39:07;;;;;;;13.90;6.95;;;;;;;14.24;61.83;101731.13;5168341;28;20104;-80
2021/04/24 06:41:38;;;;;;;15.32;7.18;;;;;;;14.83;57.93;101733.50;5169223;28;20046;-79
2021/04/24 06:44:08;;;;;;;16.15;7.35;;;;;;;13.73;62.03;101732.72;5171381;28;20029;-79
2021/04/24 06:46:38;;;;;;;15.77;6.90;;;;;;;15.41;58.13;101738.47;5168568;28;20034;-79
2021/04/24 06:49:10;;;;;;;14.65;6.88;;;;;;;14.77;58.30;101732.84;5167664;28;20077;-78
2021/04/24 06:51:41;;;;;;;16.05;7.10;;;;;;;12.70;63.03;101747.88;5150148;28;20018;-78
2021/04/24 06:54:11;;;;;;;16.05;6.70;;;;;;;12.41;65.41;101751.22;5167865;28;20033;-79
2021/04/24 06:56:41;;;;;;;14.98;6.60;;;;;;;11.19;67.70;101749.53;5168706;28;20026;-79
2021/04/24 06:59:12;;;;;;;15.05;7.00;;;;;;;11.43;67.97;101749.06;5152456;28;20037;-79
2021/04/24 07:01:42;;;;;;;17.00;7.18;;;;;;;11.39;69.69;101747.38;5167813;28;20018;-79
2021/04/24 07:04:16;;;;;;;12.48;6.40;;;;;;;11.53;68.90;101746.22;5173189;28;20034;-78
2021/04/24 07:06:46;;;;;;;17.05;6.88;;;;;;;12.81;67.47;101740.59;5173006;28;20018;-79
2021/04/24 07:09:17;;;;;;;12.75;6.25;;;;;;;13.49;62.67;101737.81;5179827;28;20033;-79
2021/04/24 07:11:47;;;;;;;13.38;5.55;;;;;;;13.28;63.07;101731.44;5173197;28;20098;-79
2021/04/24 07:14:18;;;;;;;15.15;6.30;;;;;;;12.86;64.91;101743.94;5177254;28;20056;-80
2021/04/24 07:16:48;;;;;;;12.98;6.38;;;;;;;10.88;70.09;101742.28;5174610;28;20026;-79
2021/04/24 07:19:19;;;;;;;17.80;6.70;;;;;;;11.00;72.21;101742.94;5174299;28;20031;-79
2021/04/24 07:21:49;;;;;;;11.30;5.55;;;;;;;11.69;69.05;101738.94;5156528;28;20193;-78
2021/04/24 07:24:20;;;;;;;13.48;5.80;;;;;;;11.41;69.19;101740.38;5172582;28;20053;-80
2021/04/24 07:26:50;;;;;;;13.25;4.93;;;;;;;11.29;70.39;101738.84;5172798;28;20040;-79
2021/04/24 07:29:20;;;;;;;9.82;4.90;;;;;;;10.84;70.93;101740.63;5171549;28;20109;-80
2021/04/24 07:31:51;;;;;;;12.82;4.30;;;;;;;11.04;70.20;101735.00;5170631;28;20108;-78
2021/04/24 07:34:21;;;;;;;13.52;4.93;;;;;;;10.92;70.99;101736.13;5154507;28;20038;-78
2021/04/24 07:36:52;;;;;;;13.00;4.78;;;;;;;10.92;71.71;101741.34;5156713;28;20403;-79
2021/04/24 07:39:22;;;;;;;11.43;4.35;;;;;;;9.93;72.70;101745.56;5154620;28;20031;-79
2021/04/24 07:41:56;;;;;;;10.45;4.55;;;;;;;9.37;75.12;101753.28;5172441;28;20022;-79
2021/04/24 07:44:26;;;;;;;16.25;4.70;;;;;;;10.33;74.03;101739.75;5173094;28;20344;-79
2021/04/24 07:46:57;;;;;;;13.38;4.53;;;;;;;12.28;67.00;101727.97;5173589;28;20061;-80
2021/04/24 07:49:27;;;;;;;12.52;4.57;;;;;;;12.18;68.09;101731.69;5156717;28;20030;-79
2021/04/24 07:51:57;;;;;;;12.43;3.95;;;;;;;11.16;69.01;101733.91;5171594;28;20052;-80
2021/04/24 07:54:28;;;;;;;9.93;3.70;;;;;;;10.72;69.62;101743.47;5172641;28;20034;-79
2021/04/24 07:56:59;;;;;;;9.20;3.20;;;;;;;10.32;70.08;101739.78;5171225;28;20034;-78
2021/04/24 07:59:30;;;;;;;14.98;4.60;;;;;;;9.66;74.28;101740.75;5152724;28;20065;-79
2021/04/24 08:02:00;;;;;;;10.18;4.00;;;;;;;9.67;74.64;101738.09;5154009;28;20026;-79
2021/04/24 08:04:30;;;;;;;13.85;4.22;;;;;;;9.40;75.02;101732.38;5152957;28;20018;-79
2021/04/24 08:07:02;;;;;;;13.45;4.07;;;;;;;9.47;75.00;101736.66;5152963;28;20026;-79
2021/04/24 08:09:36;;;;;;;14.25;4.10;;;;;;;9.73;74.26;101739.75;5172141;28;20034;-79
2021/04/24 08:12:10;;;;;;;8.73;2.80;;;;;;;12.43;64.45;101732.84;5153490;28;20030;-79
2021/04/24 08:14:40;;;;;;;9.10;3.20;;;;;;;11.59;65.85;101730.41;5170888;28;20046;-80
2021/04/24 08:17:13;;;;;;;7.05;2.72;;;;;;;11.59;65.91;101733.03;5170685;28;20029;-79
2021/04/24 08:19:43;;;;;;;11.13;2.88;;;;;;;10.77;68.14;101736.38;5154286;28;20030;-80
2021/04/24 08:22:14;;;;;;;9.55;3.35;;;;;;;10.09;70.26;101739.25;5170438;28;20031;-79
2021/04/24 08:24:44;;;;;;;8.70;3.20;;;;;;;9.94;72.17;101742.06;5172619;28;20073;-79
2021/04/24 08:27:15;;;;;;;10.65;2.88;;;;;;;9.75;70.95;101743.22;5173321;28;20041;-80
2021/04/24 08:29:45;;;;;;;9.25;2.78;;;;;;;9.84;71.30;101740.50;5172540;28;20037;-80
2021/04/24 08:32:19;;;;;;;8.93;2.60;;;;;;;9.90;71.22;101741.28;5171591;28;20029;-79
2021/04/24 08:34:49;;;;;;;8.38;2.78;;;;;;;9.67;71.65;101742.47;5153334;28;20334;-79
2021/04/24 08:37:19;;;;;;;9.57;3.50;;;;;;;9.82;72.61;101743.09;5171696;28;20061;-79
2021/04/24 08:39:50;;;;;;;13.35;3.00;;;;;;;9.75;72.65;101746.69;5171329;28;20464;-80
2021/04/24 08:42:20;;;;;;;8.70;3.47;;;;;;;9.82;72.93;101737.88;5169293;28;20022;-79
2021/04/24 08:44:51;;;;;;;11.40;3.58;;;;;;;9.86;72.97;101738.72;5171454;28;20041;-79
2021/04/24 08:47:23;;;;;;;10.27;3.10;;;;;;;9.95;71.89;101742.06;5170205;28;20061;-79
2021/04/24 08:49:54;;;;;;;12.07;3.70;;;;;;;10.06;71.99;101737.59;5171201;28;20019;-79
2021/04/24 08:52:24;;;;;;;12.73;4.00;;;;;;;10.14;71.67;101742.69;5153037;28;20041;-79
2021/04/24 08:54:55;;;;;;;8.45;3.25;;;;;;;10.08;71.81;101738.41;5152757;28;20037;-79
2021/04/24 08:57:26;;;;;;;12.43;3.75;;;;;;;9.95;72.69;101749.88;5165262;28;20038;-79
2021/04/24 08:59:56;;;;;;;11.70;3.72;;;;;;;9.63;71.62;101746.00;5189044;28;20634;-80
2021/04/24 09:02:27;;;;;;;13.52;4.30;;;;;;;9.93;71.54;101748.19;5170667;28;20057;-79
2021/04/24 09:04:58;;;;;;;11.27;3.92;;;;;;;9.85;71.18;101750.03;5153208;28;20026;-79
2021/04/24 09:07:28;;;;;;;13.88;3.90;;;;;;;9.83;71.35;101750.06;5171889;28;20046;-78
2021/04/24 09:09:59;;;;;;;8.00;3.38;;;;;;;9.75;70.64;101751.03;5170859;28;20018;-80
2021/04/24 09:12:38;;;;;;;10.95;3.63;;;;;;;9.74;69.53;101749.31;5193927;23;20101;-81
2021/04/24 09:15:13;;;;;;;14.10;4.22;;;;;;;10.05;70.16;101756.75;5195570;28;20032;-78
2021/04/24 09:17:51;;;;;;;12.40;3.80;;;;;;;10.33;69.06;101739.75;5188672;28;20044;-81
2021/04/24 09:20:24;;;;;;;11.80;4.20;;;;;;;10.47;67.23;101745.63;5196907;28;20692;-77
2021/04/24 09:22:56;;;;;;;12.82;3.38;;;;;;;10.46;67.12;101748.25;5188321;28;20422;-81
2021/04/24 09:25:31;;;;;;;11.07;3.60;;;;;;;10.85;66.01;101748.44;5185409;28;20033;-81
2021/04/24 09:28:02;;;;;;;8.57;3.15;;;;;;;10.44;65.28;101743.06;5183940;28;20067;-79
2021/04/24 09:30:35;;;;;;;10.02;3.38;;;;;;;10.73;66.67;101743.44;5187182;28;20071;-80
2021/04/24 09:33:12;;;;;;;9.02;2.97;;;;;;;10.62;65.75;101741.88;5186152;28;20034;-81
2021/04/24 09:35:51;;;;;;;11.70;3.30;;;;;;;10.59;65.66;101744.56;5186854;28;20037;-81
2021/04/24 09:38:33;;;;;;;8.55;3.17;;;;;;;10.69;65.15;101740.91;5184172;28;20069;-79
2021/04/24 09:41:16;;;;;;;11.85;3.33;;;;;;;11.66;62.38;101736.38;5189206;28;20560;-81
2021/04/24 09:44:14;;;;;;;8.98;3.28;;;;;;;11.67;61.95;101738.97;5178801;28;20033;-79
2021/04/24 09:46:56;;;;;;;9.02;2.50;;;;;;;11.66;61.28;101739.88;5189806;28;20443;-79
2021/04/24 09:49:29;;;;;;;7.60;2.80;;;;;;;11.39;60.25;101732.56;5181520;28;20040;-79
2021/04/24 09:52:08;;;;;;;10.77;2.90;;;;;;;12.50;60.39;101735.25;5185063;28;20035;-79
2021/04/24 09:54:42;;;;;;;10.43;3.10;;;;;;;12.66;58.52;101714.75;5182110;28;20168;-81
2021/04/24 09:58:04;;;;;;;6.88;3.20;;;;;;;13.20;57.20;101708.94;5184060;28;20137;-81
2021/04/24 10:00:55;;;;;;;7.70;3.15;;;;;;;12.71;57.77;101716.38;5158673;28;20612;-78
2021/04/24 10:03:41;;;;;;;8.68;2.97;;;;;;;12.19;57.39;101729.06;5182140;28;20068;-79
2021/04/24 10:06:22;;;;;;;8.63;3.30;;;;;;;12.56;56.99;101722.00;5184416;28;20557;-80
2021/04/24 10:09:17;;;;;;;9.38;3.40;;;;;;;12.39;60.36;101737.28;5184325;28;20104;-79
2021/04/24 10:12:02;;;;;;;10.52;3.22;;;;;;;11.87;59.50;101730.66;5187145;28;20118;-79
2021/04/24 10:14:45;;;;;;;7.45;3.25;;;;;;;11.65;59.05;101732.03;5193445;28;20036;-79
2021/04/24 10:17:19;;;;;;;7.45;3.58;;;;;;;12.24;60.72;101727.16;5190212;28;20030;-80
2021/04/24 10:19:49;;;;;;;10.20;3.85;;;;;;;12.56;58.25;101724.63;5188037;28;20029;-80
2021/04/24 10:22:23;;;;;;;11.57;3.78;;;;;;;12.13;57.59;101721.31;5184029;28;20033;-79
2021/04/24 10:24:54;;;;;;;7.82;3.10;;;;;;;12.60;57.27;101707.91;5182051;28;20030;-79
2021/04/24 10:27:24;;;;;;;9.25;3.13;;;;;;;13.17;56.25;101699.34;5189784;28;20052;-79
2021/04/24 10:29:55;;;;;;;13.40;3.63;;;;;;;12.27;58.96;101706.13;5186116;28;20026;-80
2021/04/24 10:32:26;;;;;;;11.50;3.97;;;;;;;12.10;59.40;101717.91;5190535;28;20447;-79
2021/04/24 10:34:57;;;;;;;10.00;3.60;;;;;;;11.83;60.10;101715.91;5181627;28;20109;-79
2021/04/24 10:37:27;;;;;;;13.05;4.43;;;;;;;12.24;60.96;101713.19;5189441;28;20025;-80
2021/04/24 10:40:03;;;;;;;7.15;3.28;;;;;;;12.26;59.51;101709.63;5186219;28;20683;-80
2021/04/24 10:42:33;;;;;;;;;;;;;;;12.12;59.40;101703.03;5188037;28;20048;-79
2021/04/24 10:45:08;;;;;;;11.23;4.15;;;;;;;12.52;57.34;101699.38;5197127;28;19913;-80
2021/04/24 10:47:41;;;;;;;8.65;3.65;;;;;;;12.36;57.54;101705.03;5197060;28;20086;-80
2021/04/24 10:50:17;;;;;;;11.55;5.70;;;;;;;12.47;57.98;101703.00;5186373;28;20528;-80
2021/04/24 10:52:50;;;;;;;13.50;4.88;;;;;;;12.68;57.88;101700.72;5184619;28;20022;-81
2021/04/24 10:55:23;;;;;;;16.05;7.47;;;;;;;12.61;57.00;101693.88;5195096;28;20022;-78
2021/04/24 10:57:59;;;;;;;11.00;3.85;;;;;;;12.07;57.33;101702.25;5189644;28;20029;-80
2021/04/24 11:00:30;;;;;;;9.75;4.03;;;;;;;11.98;57.06;101694.63;5188356;28;20030;-81
2021/04/24 11:03:01;;;;;;;9.98;4.28;;;;;;;12.45;57.37;101684.69;5187013;28;20029;-81
2021/04/24 11:05:33;;;;;;;7.38;3.50;;;;;;;12.81;58.50;101686.34;5188686;28;20034;-80
2021/04/24 11:08:09;;;;;;;9.48;3.80;;;;;;;12.88;55.79;101674.81;5188820;28;20476;-81
2021/04/24 11:11:02;;;;;;;11.13;3.83;;;;;;;12.71;57.13;101686.63;5190225;28;20034;-81
2021/04/24 11:13:35;;;;;;;13.35;4.00;;;;;;;12.15;58.91;101695.91;5189782;28;20059;-80
2021/04/24 11:16:09;;;;;;;10.02;4.80;;;;;;;12.61;58.18;101686.00;5203124;28;20084;-80
2021/04/24 11:18:44;;;;;;;11.52;3.83;;;;;;;12.87;58.06;101678.31;5187744;28;20128;-80
2021/04/24 11:21:18;;;;;;;9.85;4.32;;;;;;;12.64;56.63;101680.69;5183241;28;20018;-78
2021/04/24 11:23:50;;;;;;;12.52;3.83;;;;;;;12.68;56.15;101665.75;5185907;28;20501;-79
2021/04/24 11:26:24;;;;;;;11.30;3.88;;;;;;;12.74;56.10;101671.69;5188953;28;20083;-80
2021/04/24 11:29:11;;;;;;;8.85;3.38;;;;;;;12.74;56.51;101666.44;5187552;28;20034;-82
2021/04/24 11:31:59;;;;;;;7.88;3.63;;;;;;;12.97;56.29;101671.94;5187938;28;20101;-81
2021/04/24 11:34:46;;;;;;;8.85;3.92;;;;;;;12.74;56.31;101671.69;5185801;28;20049;-79
2021/04/24 11:37:18;;;;;;;8.98;3.83;;;;;;;12.85;56.42;101666.97;5185440;28;20053;-81
2021/04/24 11:40:18;;;;;;;9.50;3.50;;;;;;;12.74;55.66;101669.06;5189200;28;20121;-79
2021/04/24 11:43:04;;;;;;;8.93;3.97;;;;;;;12.85;55.66;101664.38;5186783;28;20117;-79
2021/04/24 11:45:57;;;;;;;12.15;3.88;;;;;;;12.53;56.14;101672.25;5218273;28;20071;-80
2021/04/24 11:48:47;;;;;;;10.65;3.88;;;;;;;12.88;55.80;101659.06;5189982;28;20670;-78